Mandurah, Australia

3:09 PM AWST on February 22, 2017 (GMT +0800)
Greenfields | | Change Station

Elev 39 ft 32.53 °S, 115.75 °E | Updated 25 seconds ago

Clear
Clear
71.2 °F
Feels Like 76 °F
N
8.1
Wind Variable Wind from WSW
Gusts 9.8 mph

Today
High -- | Low -- °F
--% Chance of Precip.
Yesterday
High -- | Low -- °F
Precip. -- in
Pressure 30.09 in
Visibility 6.2 miles
Clouds Few 4500 ft
Heat Index 76 °F
Dew Point 55 °F
Humidity 57%
Rainfall 0.00 in
Snow Depth Not available.
6:00 AM 7:00 PM
Waning Crescent, 19% visible
METAR YPPH 220630Z 23011KT 220V290 9999 FEW045 24/11 Q1019 NOSIG
Pressure 30.09 in
Visibility 6.2 miles
Clouds Few 4500 ft
Heat Index 76 °F
Dew Point 55 °F
Humidity 57%
Rainfall 0.00 in
Snow Depth Not available.
6:00 AM 7:00 PM
Waning Crescent, 19% visible
METAR YPPH 220630Z 23011KT 220V290 9999 FEW045 24/11 Q1019 NOSIG

Get Your Daily Forecast Email!

Thanks for signing up!

Be on the lookout for a verification email in your inbox.

You'll start receiving the daily forecast at 8 AM.

×

10-Day Weather Forecast

×

Almanac

Astronomy

Feb. 22, 2017 Rise Set
Actual Time
Civil Twilight
Nautical Twilight
Astronomical Twilight
Moon
Length of Visible Light
Length of Day
Tomorrow will be .
, % of the Moon is Illuminated

Today's Extremes

Country Highs Country Lows

Community

WunderPhotos

Upload Photos

1,962,540 photos uploaded!

WunderBlog® & News

Nearby

Air Quality

  Air Quality AQ Index Pollutant
Not available.

Snow Depth

Station Depth Elevation

Earthquake Activity

City Distance Mag. Time & Date
Minimum magnitude displayed is 2.5.

Coastal Water Temperatures

Place Temperature

Stations

Nearby Weather Stations

Station Location Temp. Windchill Dew Point Humidity Wind Precip. Elev Updated Type